Airfield :
LOGIN :

Register | Disclaimer

   EN    FR    IT 

 










Legend :    VFR   Marginal VFR   IFR   Intensive IFR   Very Intensive IFR
Visi :
Ceiling :
>= 8 km
>= 3000ft
5 to 8 km
1000 to 3000 ft
1500m to 5 km
500 to 1000 ft
800 to 1500m
200 to 500 ft
< 800m
< 200 ft
Symbols :   Thunderstorms  Fog  Heavy snow  Heavy precipitations  Wind > 20 kt
SIGMETs :     Misc.  Thunderstorms  Icing  Turbulence  Mountain Waves  Volcanic Ashes







- Airport Elevation : 268 ft
- IATA code : BFS
- Download approach charts


EGAA - Belfast Aldergrove

CURRENT METAR :
  • 200920Z 22010KT 9999 BKN012 BKN017 10/10 Q1007

EXPIRED METARs :
  • 200850Z 22010KT 9999 FEW007 BKN010 BKN015 10/10 Q1007
  • 200820Z 22010KT 9999 VCSH BKN010 BKN015 10/10 Q1007
  • 200750Z 21009KT 9999 VCSH BKN010 BKN014 11/10 Q1007
  • 200720Z 21009KT 9999 BKN013 BKN018 10/10 Q1007
  • 200650Z 21008KT 9999 BKN018 10/10 Q1007

TAF AMD TAF EGAA
Valid from the 20 at 07:00 until the 21 at 06:00 UTC


200700Z 2007/2106 23013KT 9999 FEW013 BKN030
BECMG 2007/2009 BKN013
TEMPO 2007/2020 7000 -RADZ
PROB40
TEMPO 2008/2010 3000 -DZ BKN007
TEMPO 2010/2021 FEW013 BKN025
BECMG 2019/2022 7000 BKN003
TEMPO 2021/2102 2000 +RA
PROB40 2022/2104 0500 FG BKN000
BECMG 2104/2106 9999 BKN009
No reported NOTAMs for that airfield.
1 SIGMET reported for the Scottish FIR (EGPX) :
 
Severe icing
EGPX SIGMET 03 VALID 200800/201200 EGRR
EGPX SCOTTISH FIR SEV ICE FCST WI N5853 W00448 - N5716 E00045 - N5605 W00030 - N5810 W00622 - N5853 W00448 FL030/100 STNR NC=



MET'MAP, your aeronautical weather chart ! - Copyright ORBIFLY December 2007 - Disclaimer

ORBIFLY MET'MAP TEAM :

Programming & Development : Alexandra Zaïnal
Concept & Development : Baudouin d'Aumeries
Co-Development & Prog : Marc-Olivier Méhu
Technical & hardware support : Manuel Goepfert

Contact : metmap@orbifly.com




SOURCES & CREDITS :

   NOAA